Baltic Frost — 9HA2868 — position and weather

sailwx.info

Track history (hours):
 
Tides and Currents Weather Stations Pressure Air Temp Water Temp Dewpoint Dewpoint Depression Visibility Wind Speed Wind Dir Waves Ship Positions

Baltic Frost

Last reported at 2014-Aug-25 04:11 UTC. Time now 2014-Aug-30 02:33 UTC.
Position N 50°26' W 000°25'.

Length 182 m; draft 10.9 m.

Type: Ship. MMSI: 256495000.

Date/timePositionNaut miles runAvg speedWind from/ knotsBaromVisibWave heightAir tempDewpointWater temp
2014-Aug-25 04:11N 50°26' W 000°25'2614.7
2014-Aug-25 02:26N 50°33' E 000°14'1314.4
2014-Aug-25 01:34N 50°36' E 000°34'1413.5
2014-Aug-25 00:33N 50°45' E 000°50'2611.8
2014-Aug-24 22:21N 51°02' E 001°22'1012.3
2014-Aug-24 21:33N 51°08' E 001°34'1414.0
2014-Aug-24 20:33N 51°18' E 001°50'1211.7
2014-Aug-24 19:33N 51°23' E 002°07'1313.4
2014-Aug-24 18:33N 51°22' E 002°28'1212.3
2014-Aug-24 17:33N 51°24' E 002°47'1513.8
2014-Aug-24 16:30N 51°24' E 003°11'1415.0
2014-Aug-24 15:33N 51°26' E 003°33'1010.1
2014-Aug-24 14:34N 51°21' E 003°48'10 9.7
2014-Aug-24 13:33N 51°25' E 004°02'7 7.4
2014-Aug-24 12:33N 51°22' E 004°13'3 2.3
2014-Aug-24 11:10N 51°21' E 004°17'0 0.1
2014-Aug-24 10:34N 51°21' E 004°17'4 4.2
2014-Aug-24 09:33N 51°17' E 004°21'1 0.7
2014-Aug-24 08:32N 51°16' E 004°21'0 0.0
2014-Aug-24 07:32N 51°16' E 004°21'0 0.0
2014-Aug-24 06:31N 51°16' E 004°21'0 0.0
2014-Aug-24 05:31N 51°16' E 004°21'0 0.0
2014-Aug-24 04:31N 51°16' E 004°21'0 0.0
2014-Aug-24 03:33N 51°16' E 004°21'0 0.0
2014-Aug-24 02:33N 51°16' E 004°21'0 0.0
2014-Aug-24 01:32N 51°16' E 004°21'0 0.0
2014-Aug-24 00:32N 51°16' E 004°21'0 0.0
2014-Aug-23 23:31N 51°16' E 004°21'0 0.0
2014-Aug-23 22:31N 51°16' E 004°21'0 0.0
2014-Aug-23 21:34N 51°16' E 004°21'0 0.0
2014-Aug-23 20:33N 51°16' E 004°21'0 0.0
2014-Aug-23 19:33N 51°16' E 004°21'0 0.0
2014-Aug-23 03:32N 51°16' E 004°21'1 0.6
2014-Aug-23 02:29N 51°16' E 004°21'0 0.0
2014-Aug-23 01:29N 51°16' E 004°21'0 0.0
2014-Aug-23 00:31N 51°16' E 004°21'0 0.0
2014-Aug-22 23:31N 51°16' E 004°21'0 0.0
2014-Aug-22 22:31N 51°16' E 004°21'0 0.0
2014-Aug-22 21:33N 51°16' E 004°21'0 0.0
2014-Aug-22 20:33N 51°16' E 004°21'0 0.0
2014-Aug-22 19:32N 51°16' E 004°21'0 0.0
2014-Aug-22 18:32N 51°16' E 004°21'0 0.0
2014-Aug-22 17:31N 51°16' E 004°21'0 0.0
2014-Aug-22 16:31N 51°16' E 004°21'0 0.0
2014-Aug-22 15:31N 51°16' E 004°21'0 0.0
2014-Aug-22 14:33N 51°16' E 004°21'0 0.0
2014-Aug-22 13:33N 51°16' E 004°21'0 0.0
2014-Aug-22 12:32N 51°16' E 004°21'0 0.0
2014-Aug-22 11:32N 51°16' E 004°21'0 0.0
2014-Aug-22 10:31N 51°16' E 004°21'1 0.6
2014-Aug-22 09:34N 51°16' E 004°20'1 0.5
2014-Aug-22 08:24N 51°16' E 004°21'0 0.0
2014-Aug-22 07:32N 51°16' E 004°21'0 0.0
2014-Aug-22 06:32N 51°16' E 004°21'0 0.0
2014-Aug-22 05:31N 51°16' E 004°21'0 0.0
2014-Aug-22 04:31N 51°16' E 004°21'0 0.0
2014-Aug-22 03:25N 51°16' E 004°21'0 0.0
2014-Aug-22 02:33N 51°16' E 004°21'0 0.0
2014-Aug-22 01:33N 51°16' E 004°21'0 0.0
2014-Aug-22 00:33N 51°16' E 004°21'0 0.0
2014-Aug-21 23:33N 51°16' E 004°21'0 0.0
2014-Aug-21 22:33N 51°16' E 004°21'0 0.0
2014-Aug-21 21:33N 51°16' E 004°21'0 0.0
2014-Aug-21 20:33N 51°16' E 004°21'0 0.0
2014-Aug-21 19:33N 51°16' E 004°21'0 0.0
2014-Aug-21 18:33N 51°16' E 004°21'0 0.0
2014-Aug-21 17:33N 51°16' E 004°21'0 0.0
2014-Aug-21 16:33N 51°16' E 004°21'0 0.0
2014-Aug-21 15:33N 51°16' E 004°21'0 0.0
2014-Aug-21 14:33N 51°16' E 004°21'0 0.0
2014-Aug-21 13:33N 51°16' E 004°21'0 0.0
2014-Aug-21 12:33N 51°16' E 004°21'0 0.0
2014-Aug-21 11:33N 51°16' E 004°21'0 0.0
2014-Aug-21 10:33N 51°16' E 004°21'0 0.0
2014-Aug-21 09:33N 51°16' E 004°21'0 0.0
2014-Aug-21 08:33N 51°16' E 004°21'0 0.0
2014-Aug-21 07:33N 51°16' E 004°21'0 0.0
2014-Aug-21 06:33N 51°16' E 004°21'0 0.0
2014-Aug-21 05:33N 51°16' E 004°21'0 0.0
2014-Aug-21 04:33N 51°16' E 004°21'0 0.0
2014-Aug-21 03:33N 51°16' E 004°21'0 0.0
2014-Aug-21 02:33N 51°16' E 004°21'0 0.0
2014-Aug-21 01:33N 51°16' E 004°21'0 0.0
2014-Aug-21 00:33N 51°16' E 004°21'0 0.0
2014-Aug-20 23:33N 51°16' E 004°21'0 0.0
2014-Aug-20 22:33N 51°16' E 004°21'0 0.0
2014-Aug-20 21:33N 51°16' E 004°21'0 0.0
2014-Aug-20 20:33N 51°16' E 004°21'0 0.0
2014-Aug-20 19:33N 51°16' E 004°21'0 0.0
2014-Aug-20 18:33N 51°16' E 004°21'0 0.5
2014-Aug-20 17:33N 51°17' E 004°21'5 4.6
2014-Aug-20 16:33N 51°21' E 004°17'0 0.0
2014-Aug-20 15:34N 51°21' E 004°17'1 0.9
2014-Aug-20 14:33N 51°21' E 004°16'5 4.6
2014-Aug-20 13:33N 51°23' E 004°09'7 7.2
2014-Aug-20 12:33N 51°26' E 003°59'9 9.3
2014-Aug-20 11:33N 51°22' E 003°45'8 8.4
2014-Aug-20 10:33N 51°25' E 003°33'10 9.7
2014-Aug-20 09:30N 51°24' E 003°16'1213.2
2014-Aug-20 08:33N 51°25' E 002°56'9 9.2
2014-Aug-20 07:33N 51°25' E 002°42'2 2.0
2014-Aug-20 06:33N 51°26' E 002°39'2 1.5
2014-Aug-20 05:33N 51°27' E 002°36'0 0.0
2014-Aug-20 04:23N 51°27' E 002°36'0 0.0
2014-Aug-20 03:26N 51°27' E 002°36'0 0.0
2014-Aug-20 02:31N 51°27' E 002°36'0 0.0
2014-Aug-20 01:31N 51°27' E 002°36'0 0.0
2014-Aug-20 00:30N 51°27' E 002°36'0 0.1
2014-Aug-19 23:33N 51°27' E 002°37'0 0.0
2014-Aug-19 22:33N 51°27' E 002°37'0 0.0
2014-Aug-19 21:32N 51°27' E 002°37'0 0.0
2014-Aug-19 20:32N 51°27' E 002°37'0 0.0
2014-Aug-19 19:28N 51°27' E 002°37'0 0.1
2014-Aug-19 18:31N 51°27' E 002°37'0 0.0
2014-Aug-19 17:33N 51°27' E 002°37'0 0.1
2014-Aug-19 16:33N 51°27' E 002°37'0 0.0
2014-Aug-19 15:30N 51°27' E 002°36'0 0.0
2014-Aug-19 14:29N 51°27' E 002°36'0 0.1
2014-Aug-19 13:26N 51°27' E 002°37'0 0.1
2014-Aug-19 12:31N 51°27' E 002°37'0 0.0
2014-Aug-19 11:31N 51°27' E 002°37'0 0.1
2014-Aug-19 10:33N 51°27' E 002°37'0 0.0
2014-Aug-19 09:33N 51°27' E 002°37'0 0.0
2014-Aug-19 08:30N 51°27' E 002°37'0 0.0
2014-Aug-19 07:29N 51°27' E 002°37'0 0.1
2014-Aug-19 06:32N 51°27' E 002°37'0 0.1
2014-Aug-19 05:31N 51°27' E 002°37'0 0.1
2014-Aug-19 04:28N 51°27' E 002°37'0 0.1
2014-Aug-19 03:30N 51°27' E 002°36'0 0.0
2014-Aug-19 02:33N 51°27' E 002°36'0 0.0
2014-Aug-19 01:29N 51°27' E 002°36'0 0.0
2014-Aug-19 00:32N 51°27' E 002°36'0 0.1
2014-Aug-18 23:29N 51°27' E 002°37'0 0.2
2014-Aug-18 22:31N 51°27' E 002°37'0 0.1
2014-Aug-18 21:31N 51°27' E 002°37'0 0.0
2014-Aug-18 20:33N 51°27' E 002°37'0 0.0
2014-Aug-18 19:33N 51°27' E 002°37'0 0.1
2014-Aug-18 18:29N 51°27' E 002°37'0 0.1
2014-Aug-18 17:29N 51°27' E 002°37'0 0.1
2014-Aug-18 16:26N 51°27' E 002°37'0 0.1
2014-Aug-18 15:28N 51°27' E 002°36'0 0.0
2014-Aug-18 13:27N 51°27' E 002°36'0 0.1
2014-Aug-18 12:33N 51°27' E 002°37'0 0.1
2014-Aug-18 11:33N 51°27' E 002°37'0 0.0
2014-Aug-18 10:32N 51°27' E 002°37'0 0.1
2014-Aug-18 09:29N 51°27' E 002°37'0 0.0
2014-Aug-18 08:31N 51°27' E 002°37'0 0.0
2014-Aug-18 07:25N 51°27' E 002°37'0 0.0
2014-Aug-18 06:30N 51°27' E 002°37'0 0.0
2014-Aug-18 05:30N 51°27' E 002°37'0 0.0
2014-Aug-18 04:32N 51°27' E 002°37'0 0.1
2014-Aug-18 03:32N 51°27' E 002°37'0 0.1
2014-Aug-18 02:28N 51°27' E 002°37'0 0.0
2014-Aug-18 01:25N 51°27' E 002°37'0 0.1
2014-Aug-18 00:28N 51°27' E 002°37'0 0.0
2014-Aug-17 18:31N 51°27' E 002°37'0 0.0
2014-Aug-17 17:31N 51°27' E 002°37'0 0.0
2014-Aug-17 16:33N 51°27' E 002°37'0 0.0
2014-Aug-17 15:25N 51°27' E 002°37'0 0.0
2014-Aug-17 14:31N 51°27' E 002°37'0 0.2
2014-Aug-17 13:31N 51°27' E 002°36'0 0.1
2014-Aug-17 12:33N 51°27' E 002°36'0 0.2
2014-Aug-17 11:33N 51°27' E 002°37'0 0.0
2014-Aug-17 10:32N 51°27' E 002°37'0 0.0
2014-Aug-17 09:29N 51°27' E 002°37'0 0.0
2014-Aug-17 08:32N 51°27' E 002°37'0 0.0
2014-Aug-17 07:31N 51°27' E 002°37'0 0.0
2014-Aug-17 06:31N 51°27' E 002°37'0 0.0
2014-Aug-17 05:27N 51°27' E 002°37'0 0.0
2014-Aug-17 04:30N 51°27' E 002°37'0 0.0
2014-Aug-17 03:32N 51°27' E 002°37'0 0.1
2014-Aug-17 02:32N 51°27' E 002°37'0 0.3
2014-Aug-17 01:32N 51°27' E 002°36'0 0.0
2014-Aug-17 00:31N 51°27' E 002°36'0 0.2
2014-Aug-16 23:16N 51°27' E 002°37'0 0.1
2014-Aug-16 22:33N 51°27' E 002°37'0 0.1
2014-Aug-16 21:33N 51°27' E 002°37'0 0.0
2014-Aug-16 20:33N 51°27' E 002°37'0 0.0
2014-Aug-16 19:32N 51°27' E 002°37'0 0.0
2014-Aug-16 18:32N 51°27' E 002°37'0 0.0
2014-Aug-16 17:22N 51°27' E 002°37'0 0.0
2014-Aug-16 16:31N 51°27' E 002°37'0 0.1
2014-Aug-16 15:33N 51°27' E 002°37'0 0.2
2014-Aug-16 14:27N 51°27' E 002°36'0 0.1
2014-Aug-16 13:29N 51°27' E 002°36'0 0.0
2014-Aug-16 12:32N 51°27' E 002°36'0 0.0
2014-Aug-16 11:32N 51°27' E 002°36'0 0.0
2014-Aug-16 10:31N 51°27' E 002°36'0 0.2
2014-Aug-16 09:31N 51°27' E 002°37'0 0.1
2014-Aug-16 08:33N 51°27' E 002°37'0 0.1
2014-Aug-16 07:33N 51°27' E 002°37'0 0.0
2014-Aug-16 06:32N 51°27' E 002°37'4 3.8
2014-Aug-16 05:33N 51°23' E 002°34'1312.5
2014-Aug-16 04:29N 51°17' E 002°15'1213.3
2014-Aug-16 03:33N 51°11' E 001°58'1515.2
2014-Aug-16 02:33N 51°02' E 001°39'1515.0
2014-Aug-16 01:34N 50°49' E 001°25'1413.8
2014-Aug-16 00:31N 50°37' E 001°13'1414.5
2014-Aug-15 23:33N 50°29' E 000°54'1414.7
2014-Aug-15 22:33N 50°25' E 000°32'1414.0
2014-Aug-15 21:33N 50°22' E 000°11'  
Track history (hours):
 
Tides and Currents Weather Stations Pressure Air Temp Water Temp Dewpoint Dewpoint Depression Visibility Wind Speed Wind Dir Waves Ship Positions

Baltic Frost

Last reported at 2014-Aug-25 04:11 UTC. Time now 2014-Aug-30 02:33 UTC.
Position N 50°26' W 000°25'.

Length 182 m; draft 10.9 m.

Type: Ship. MMSI: 256495000.

Date/timePositionNaut miles runAvg speedWind from/ knotsBaromVisibWave heightAir tempDewpointWater temp
2014-Aug-25 04:11N 50°26' W 000°25'2614.7
2014-Aug-25 02:26N 50°33' E 000°14'1314.4
2014-Aug-25 01:34N 50°36' E 000°34'1413.5
2014-Aug-25 00:33N 50°45' E 000°50'2611.8
2014-Aug-24 22:21N 51°02' E 001°22'1012.3
2014-Aug-24 21:33N 51°08' E 001°34'1414.0
2014-Aug-24 20:33N 51°18' E 001°50'1211.7
2014-Aug-24 19:33N 51°23' E 002°07'1313.4
2014-Aug-24 18:33N 51°22' E 002°28'1212.3
2014-Aug-24 17:33N 51°24' E 002°47'1513.8
2014-Aug-24 16:30N 51°24' E 003°11'1415.0
2014-Aug-24 15:33N 51°26' E 003°33'1010.1
2014-Aug-24 14:34N 51°21' E 003°48'10 9.7
2014-Aug-24 13:33N 51°25' E 004°02'7 7.4
2014-Aug-24 12:33N 51°22' E 004°13'3 2.3
2014-Aug-24 11:10N 51°21' E 004°17'0 0.1
2014-Aug-24 10:34N 51°21' E 004°17'4 4.2
2014-Aug-24 09:33N 51°17' E 004°21'1 0.7
2014-Aug-24 08:32N 51°16' E 004°21'0 0.0
2014-Aug-24 07:32N 51°16' E 004°21'0 0.0
2014-Aug-24 06:31N 51°16' E 004°21'0 0.0
2014-Aug-24 05:31N 51°16' E 004°21'0 0.0
2014-Aug-24 04:31N 51°16' E 004°21'0 0.0
2014-Aug-24 03:33N 51°16' E 004°21'0 0.0
2014-Aug-24 02:33N 51°16' E 004°21'0 0.0
2014-Aug-24 01:32N 51°16' E 004°21'0 0.0
2014-Aug-24 00:32N 51°16' E 004°21'0 0.0
2014-Aug-23 23:31N 51°16' E 004°21'0 0.0
2014-Aug-23 22:31N 51°16' E 004°21'0 0.0
2014-Aug-23 21:34N 51°16' E 004°21'0 0.0
2014-Aug-23 20:33N 51°16' E 004°21'0 0.0
2014-Aug-23 19:33N 51°16' E 004°21'0 0.0
2014-Aug-23 03:32N 51°16' E 004°21'1 0.6
2014-Aug-23 02:29N 51°16' E 004°21'0 0.0
2014-Aug-23 01:29N 51°16' E 004°21'0 0.0
2014-Aug-23 00:31N 51°16' E 004°21'0 0.0
2014-Aug-22 23:31N 51°16' E 004°21'0 0.0
2014-Aug-22 22:31N 51°16' E 004°21'0 0.0
2014-Aug-22 21:33N 51°16' E 004°21'0 0.0
2014-Aug-22 20:33N 51°16' E 004°21'0 0.0
2014-Aug-22 19:32N 51°16' E 004°21'0 0.0
2014-Aug-22 18:32N 51°16' E 004°21'0 0.0
2014-Aug-22 17:31N 51°16' E 004°21'0 0.0
2014-Aug-22 16:31N 51°16' E 004°21'0 0.0
2014-Aug-22 15:31N 51°16' E 004°21'0 0.0
2014-Aug-22 14:33N 51°16' E 004°21'0 0.0
2014-Aug-22 13:33N 51°16' E 004°21'0 0.0
2014-Aug-22 12:32N 51°16' E 004°21'0 0.0
2014-Aug-22 11:32N 51°16' E 004°21'0 0.0
2014-Aug-22 10:31N 51°16' E 004°21'1 0.6
2014-Aug-22 09:34N 51°16' E 004°20'1 0.5
2014-Aug-22 08:24N 51°16' E 004°21'0 0.0
2014-Aug-22 07:32N 51°16' E 004°21'0 0.0
2014-Aug-22 06:32N 51°16' E 004°21'0 0.0
2014-Aug-22 05:31N 51°16' E 004°21'0 0.0
2014-Aug-22 04:31N 51°16' E 004°21'0 0.0
2014-Aug-22 03:25N 51°16' E 004°21'0 0.0
2014-Aug-22 02:33N 51°16' E 004°21'0 0.0
2014-Aug-22 01:33N 51°16' E 004°21'0 0.0
2014-Aug-22 00:33N 51°16' E 004°21'0 0.0
2014-Aug-21 23:33N 51°16' E 004°21'0 0.0
2014-Aug-21 22:33N 51°16' E 004°21'0 0.0
2014-Aug-21 21:33N 51°16' E 004°21'0 0.0
2014-Aug-21 20:33N 51°16' E 004°21'0 0.0
2014-Aug-21 19:33N 51°16' E 004°21'0 0.0
2014-Aug-21 18:33N 51°16' E 004°21'0 0.0
2014-Aug-21 17:33N 51°16' E 004°21'0 0.0
2014-Aug-21 16:33N 51°16' E 004°21'0 0.0
2014-Aug-21 15:33N 51°16' E 004°21'0 0.0
2014-Aug-21 14:33N 51°16' E 004°21'0 0.0
2014-Aug-21 13:33N 51°16' E 004°21'0 0.0
2014-Aug-21 12:33N 51°16' E 004°21'0 0.0
2014-Aug-21 11:33N 51°16' E 004°21'0 0.0
2014-Aug-21 10:33N 51°16' E 004°21'0 0.0
2014-Aug-21 09:33N 51°16' E 004°21'0 0.0
2014-Aug-21 08:33N 51°16' E 004°21'0 0.0
2014-Aug-21 07:33N 51°16' E 004°21'0 0.0
2014-Aug-21 06:33N 51°16' E 004°21'0 0.0
2014-Aug-21 05:33N 51°16' E 004°21'0 0.0
2014-Aug-21 04:33N 51°16' E 004°21'0 0.0
2014-Aug-21 03:33N 51°16' E 004°21'0 0.0
2014-Aug-21 02:33N 51°16' E 004°21'0 0.0
2014-Aug-21 01:33N 51°16' E 004°21'0 0.0
2014-Aug-21 00:33N 51°16' E 004°21'0 0.0
2014-Aug-20 23:33N 51°16' E 004°21'0 0.0
2014-Aug-20 22:33N 51°16' E 004°21'0 0.0
2014-Aug-20 21:33N 51°16' E 004°21'0 0.0
2014-Aug-20 20:33N 51°16' E 004°21'0 0.0
2014-Aug-20 19:33N 51°16' E 004°21'0 0.0
2014-Aug-20 18:33N 51°16' E 004°21'0 0.5
2014-Aug-20 17:33N 51°17' E 004°21'5 4.6
2014-Aug-20 16:33N 51°21' E 004°17'0 0.0
2014-Aug-20 15:34N 51°21' E 004°17'1 0.9
2014-Aug-20 14:33N 51°21' E 004°16'5 4.6
2014-Aug-20 13:33N 51°23' E 004°09'7 7.2
2014-Aug-20 12:33N 51°26' E 003°59'9 9.3
2014-Aug-20 11:33N 51°22' E 003°45'8 8.4
2014-Aug-20 10:33N 51°25' E 003°33'10 9.7
2014-Aug-20 09:30N 51°24' E 003°16'1213.2
2014-Aug-20 08:33N 51°25' E 002°56'9 9.2
2014-Aug-20 07:33N 51°25' E 002°42'2 2.0
2014-Aug-20 06:33N 51°26' E 002°39'2 1.5
2014-Aug-20 05:33N 51°27' E 002°36'0 0.0
2014-Aug-20 04:23N 51°27' E 002°36'0 0.0
2014-Aug-20 03:26N 51°27' E 002°36'0 0.0
2014-Aug-20 02:31N 51°27' E 002°36'0 0.0
2014-Aug-20 01:31N 51°27' E 002°36'0 0.0
2014-Aug-20 00:30N 51°27' E 002°36'0 0.1
2014-Aug-19 23:33N 51°27' E 002°37'0 0.0
2014-Aug-19 22:33N 51°27' E 002°37'0 0.0
2014-Aug-19 21:32N 51°27' E 002°37'0 0.0
2014-Aug-19 20:32N 51°27' E 002°37'0 0.0
2014-Aug-19 19:28N 51°27' E 002°37'0 0.1
2014-Aug-19 18:31N 51°27' E 002°37'0 0.0
2014-Aug-19 17:33N 51°27' E 002°37'0 0.1
2014-Aug-19 16:33N 51°27' E 002°37'0 0.0
2014-Aug-19 15:30N 51°27' E 002°36'0 0.0
2014-Aug-19 14:29N 51°27' E 002°36'0 0.1
2014-Aug-19 13:26N 51°27' E 002°37'0 0.1
2014-Aug-19 12:31N 51°27' E 002°37'0 0.0
2014-Aug-19 11:31N 51°27' E 002°37'0 0.1
2014-Aug-19 10:33N 51°27' E 002°37'0 0.0
2014-Aug-19 09:33N 51°27' E 002°37'0 0.0
2014-Aug-19 08:30N 51°27' E 002°37'0 0.0
2014-Aug-19 07:29N 51°27' E 002°37'0 0.1
2014-Aug-19 06:32N 51°27' E 002°37'0 0.1
2014-Aug-19 05:31N 51°27' E 002°37'0 0.1
2014-Aug-19 04:28N 51°27' E 002°37'0 0.1
2014-Aug-19 03:30N 51°27' E 002°36'0 0.0
2014-Aug-19 02:33N 51°27' E 002°36'0 0.0
2014-Aug-19 01:29N 51°27' E 002°36'0 0.0
2014-Aug-19 00:32N 51°27' E 002°36'0 0.1
2014-Aug-18 23:29N 51°27' E 002°37'0 0.2
2014-Aug-18 22:31N 51°27' E 002°37'0 0.1
2014-Aug-18 21:31N 51°27' E 002°37'0 0.0
2014-Aug-18 20:33N 51°27' E 002°37'0 0.0
2014-Aug-18 19:33N 51°27' E 002°37'0 0.1
2014-Aug-18 18:29N 51°27' E 002°37'0 0.1
2014-Aug-18 17:29N 51°27' E 002°37'0 0.1
2014-Aug-18 16:26N 51°27' E 002°37'0 0.1
2014-Aug-18 15:28N 51°27' E 002°36'0 0.0
2014-Aug-18 13:27N 51°27' E 002°36'0 0.1
2014-Aug-18 12:33N 51°27' E 002°37'0 0.1
2014-Aug-18 11:33N 51°27' E 002°37'0 0.0
2014-Aug-18 10:32N 51°27' E 002°37'0 0.1
2014-Aug-18 09:29N 51°27' E 002°37'0 0.0
2014-Aug-18 08:31N 51°27' E 002°37'0 0.0
2014-Aug-18 07:25N 51°27' E 002°37'0 0.0
2014-Aug-18 06:30N 51°27' E 002°37'0 0.0
2014-Aug-18 05:30N 51°27' E 002°37'0 0.0
2014-Aug-18 04:32N 51°27' E 002°37'0 0.1
2014-Aug-18 03:32N 51°27' E 002°37'0 0.1
2014-Aug-18 02:28N 51°27' E 002°37'0 0.0
2014-Aug-18 01:25N 51°27' E 002°37'0 0.1
2014-Aug-18 00:28N 51°27' E 002°37'0 0.0
2014-Aug-17 18:31N 51°27' E 002°37'0 0.0
2014-Aug-17 17:31N 51°27' E 002°37'0 0.0
2014-Aug-17 16:33N 51°27' E 002°37'0 0.0
2014-Aug-17 15:25N 51°27' E 002°37'0 0.0
2014-Aug-17 14:31N 51°27' E 002°37'0 0.2
2014-Aug-17 13:31N 51°27' E 002°36'0 0.1
2014-Aug-17 12:33N 51°27' E 002°36'0 0.2
2014-Aug-17 11:33N 51°27' E 002°37'0 0.0
2014-Aug-17 10:32N 51°27' E 002°37'0 0.0
2014-Aug-17 09:29N 51°27' E 002°37'0 0.0
2014-Aug-17 08:32N 51°27' E 002°37'0 0.0
2014-Aug-17 07:31N 51°27' E 002°37'0 0.0
2014-Aug-17 06:31N 51°27' E 002°37'0 0.0
2014-Aug-17 05:27N 51°27' E 002°37'0 0.0
2014-Aug-17 04:30N 51°27' E 002°37'0 0.0
2014-Aug-17 03:32N 51°27' E 002°37'0 0.1
2014-Aug-17 02:32N 51°27' E 002°37'0 0.3
2014-Aug-17 01:32N 51°27' E 002°36'0 0.0
2014-Aug-17 00:31N 51°27' E 002°36'0 0.2
2014-Aug-16 23:16N 51°27' E 002°37'0 0.1
2014-Aug-16 22:33N 51°27' E 002°37'0 0.1
2014-Aug-16 21:33N 51°27' E 002°37'0 0.0
2014-Aug-16 20:33N 51°27' E 002°37'0 0.0
2014-Aug-16 19:32N 51°27' E 002°37'0 0.0
2014-Aug-16 18:32N 51°27' E 002°37'0 0.0
2014-Aug-16 17:22N 51°27' E 002°37'0 0.0
2014-Aug-16 16:31N 51°27' E 002°37'0 0.1
2014-Aug-16 15:33N 51°27' E 002°37'0 0.2
2014-Aug-16 14:27N 51°27' E 002°36'0 0.1
2014-Aug-16 13:29N 51°27' E 002°36'0 0.0
2014-Aug-16 12:32N 51°27' E 002°36'0 0.0
2014-Aug-16 11:32N 51°27' E 002°36'0 0.0
2014-Aug-16 10:31N 51°27' E 002°36'0 0.2
2014-Aug-16 09:31N 51°27' E 002°37'0 0.1
2014-Aug-16 08:33N 51°27' E 002°37'0 0.1
2014-Aug-16 07:33N 51°27' E 002°37'0 0.0
2014-Aug-16 06:32N 51°27' E 002°37'4 3.8
2014-Aug-16 05:33N 51°23' E 002°34'1312.5
2014-Aug-16 04:29N 51°17' E 002°15'1213.3
2014-Aug-16 03:33N 51°11' E 001°58'1515.2
2014-Aug-16 02:33N 51°02' E 001°39'1515.0
2014-Aug-16 01:34N 50°49' E 001°25'1413.8
2014-Aug-16 00:31N 50°37' E 001°13'1414.5
2014-Aug-15 23:33N 50°29' E 000°54'1414.7
2014-Aug-15 22:33N 50°25' E 000°32'1414.0
2014-Aug-15 21:33N 50°22' E 000°11'  

Dump ship's entire track history